A Coruña Airport

Airport
ICAO code: 
LECO
IATA Code: 
LCG
Summary
ICAO Region: 
EUR
Territory: 
Location: 
Alvedro, Galicia
Serving: 
La Coruna
Elevation: 
326 ft
Coordinates: 
Aerial View: 
43° 18' 7.42" N, 8° 22' 38.122" W
Metar
Observation
LECO 071900Z 27011G21KT 230V320 9999 FEW030 BKN048 10/07 Q1012 TEMPO 4000 SHRA BKN020TCU
Station
La Coruna / Alvedro
Date/Time
2021-12-07 19:00:00
Wind direction
270°
Wind speed
11 kts
Lowest cloud amount
few clouds
Temperature
10°C
Dew point
7°C
Humidity
81%
QNH
1012 hPa
Weather condition
n/a

A Coruña Airport, formerly known as Alvedro Airport, is the airport serving the Galician city of A Coruña in northwestern Spain.

Climatology

humid oceanic climate with drier summers, (Köppen climate classification Cfb), heavily moderated by the Atlantic Ocean. Autumn and winter are often unsettled and unpredictable, with strong winds and abundant rainfall coming from Atlantic depressions, and it is often overcast.

Runways

Designator Length Width Surface Rops
4/22 1940 45 ASP Yes/Yes
Airport map: 
Aerial View: 

SKYbrary Partners:

Safety knowledge contributed by: